Tiempo atmosférico en la estación meteorológica de Brozas , Cáceres (411 m.)

Fecha
DESCASC
Temp. máxima en grados centígrados (hora)
DESCASC
Temp. mínima en grados centígrados (hora)
DESCASC
Temp. media en grados centígrados
DESCASC
Racha de viento máxima en m/sg (hora)
DESCASC
Velocidad máxima media en intervalos de 10 minutos(hora)
DESCASC
Precipitaciones diarias en mm
DESCASC
Precipitaciones de 00:00 a 06:00 en mm
DESCASC
Precipitaciones de 06:00 a 12:00 en mm
DESCASC
Precipitaciones de 12:00 a 18:00 en mm
DESCASC
Precipitaciones de 18:00 a 24:00 en mm
DESCASC
22-10-2017 22.5 (16:30) 8.8 (04:50) 15.7 8.61 (12:50) 6.11 (13:00) 0 0 0 0 0
21-10-2017 21.5 (15:10) 12.3 (23:50) 16.9 8.89 (16:30) 6.39 (17:50) 0 0 0 0 0
20-10-2017 20.1 (15:50) 15.3 (02:20) 17.7 6.39 (16:40) 4.72 (23:10) 1 0 0.8 0 0.2
19-10-2017 18.6 (15:40) 10.1 (00:00) 14.4 8.06 (16:10) 5.28 (17:50) 0 0 0 0 0
18-10-2017 19.2 (16:30) 12 (00:00) 15.6 10.56 (17:30) 7.78 (17:30) 8.6 6.8 1.8 0 0
17-10-2017 21 (15:50) 15.4 (00:00) 18.2 11.67 (17:50) 8.89 (17:50) 8.2 0 8.2 0 0
16-10-2017 26.9 (13:50) 17.7 (00:00) 22.3 9.72 (13:00) 6.11 (13:50) 0 0 0 0 0
15-10-2017 33.3 (17:00) 21.2 (00:00) 27.3 12.22 (17:20) 9.17 (17:10) 0 0 0 0 0
14-10-2017 30.9 (16:40) 16.9 (00:00) 23.9 5.83 (13:00) 4.17 (21:30) 0 0 0 0 0
13-10-2017 29.2 (16:50) 16.9 (00:00) 23.1 7.5 (14:50) 4.72 (14:50) 0 0 0 0 0
12-10-2017 31.5 (15:50) 17.3 (00:00) 24.4 9.17 (16:00) 6.11 (18:20) 0 0 0 0 0
11-10-2017 29.5 (17:20) 16.1 (00:00) 22.8 5.83 (16:00) 2.78 (11:20) 0 0 0 0 0
10-10-2017 30 (16:10) 16.1 (00:00) 23.1 6.11 (18:20) 3.61 (19:10) 0 0 0 0 0
09-10-2017 30.2 (17:10) 15.9 (00:00) 23.1 4.44 (20:40) 3.61 (23:30) 0 0 0 0 0
08-10-2017 30.6 (16:50) 15.7 (00:00) 23.2 7.78 (08:40) 5.83 (08:40) 0 0 0 0 0
07-10-2017 30.3 (17:00) 17.1 (00:00) 23.7 12.78 (11:20) 9.72 (11:50) 0 0 0 0 0
06-10-2017 33.2 (17:10) 18.6 (00:00) 25.9 9.17 (23:40) 7.22 (23:30) 0 0 0 0 0
05-10-2017 32.7 (17:00) 18 (00:00) 25.4 4.72 (17:30) 3.89 (08:20) 0 0 0 0 0
04-10-2017 32.9 (17:30) 19 (00:00) 26 8.89 (10:00) 5.56 (10:00) 0 0 0 0 0
03-10-2017 33.8 (17:30) 19.3 (00:00) 26.5 5.83 (21:40) 4.72 (06:20) 0 0 0 0 0
02-10-2017 32.2 (18:00) 19.2 (00:00) 25.7 7.22 (16:30) 5.28 (02:30) 0 0 0 0 0
01-10-2017 30.6 (17:30) 17.2 (00:00) 23.9 9.72 (16:00) 6.67 (16:10) 0 0 0 0 0
30-09-2017 29.1 (16:40) 15.2 (00:00) 22.2 8.89 (16:20) 5.83 (19:50) 0 0 0 0 0
29-09-2017 31.5 (16:00) 17 (00:00) 24.3 7.5 (22:40) 5.83 (22:50) 0 0 0 0 0
28-09-2017 30.8 (17:50) 17.5 (00:00) 24.1 6.94 (18:30) 3.61 (15:40) 0 0 0 0 0
27-09-2017 29.9 (15:10) 15.3 (00:00) 22.6 8.89 (16:30) 4.17 (21:00) 0 0 0 0 0
26-09-2017 29.3 (18:20) 11.6 (00:00) 20.4 7.22 (10:40) 5.56 (10:50) 0 0 0 0 0
25-09-2017 27.7 (17:20) 13.9 (00:00) 20.8 8.89 (15:10) 6.11 (18:30) 0 0 0 0 0
24-09-2017 30.7 (16:20) 17.3 (00:00) 24 10.28 (17:10) 6.67 (17:50) 0 0 0 0 0
23-09-2017 29.8 (16:40) 16.6 (00:00) 23.2 8.89 (10:00) 5.28 (09:20) 0 0 0 0 0

Gráficas

Temp. máximas Temp. mínimas Temp. medias Precipitaciones Rachas de viento máximas Velocidades máximas media en intervalos de 10 minutos

Datos horarios

Fecha y hora oficial Temperatura (ºC) Velocidad del viento (km/h) Dirección del viento Racha (km/h) Dirección de racha Precipitación (mm) Presión (hPa) Tendencia (hPa) Humedad (%)
2017-10-22 23:00:00 15.3 14 Norte 16 Norte 0 -- -- 49
2017-10-22 22:00:00 16.4 13 Norte 14 Norte 0 -- -- 45
2017-10-22 21:00:00 16.9 11 Nordeste 13 Norte 0 -- -- 44
2017-10-22 20:00:00 17.6 10 Nordeste 14 Norte 0 -- -- 46
2017-10-22 19:00:00 20.6 10 Norte 15 Nordeste 0 -- -- 43
2017-10-22 18:00:00 21.7 11 Norte 20 Nordeste 0 -- -- 41
2017-10-22 17:00:00 22.3 9 Este 20 Sudeste 0 -- -- 39
2017-10-22 16:00:00 21.9 13 Este 25 Este 0 -- -- 39
2017-10-22 15:00:00 21.1 12 Este 25 Este 0 -- -- 42
2017-10-22 14:00:00 20.1 14 Este 29 Nordeste 0 -- -- 45
2017-10-22 13:00:00 18.4 22 Este 31 Este 0 -- -- 51
2017-10-22 12:00:00 15.8 19 Nordeste 27 Nordeste 0 -- -- 55
2017-10-22 11:00:00 13.4 22 Nordeste 28 Nordeste 0 -- -- 62
2017-10-22 10:00:00 10.7 19 Norte 24 Norte 0 -- -- 70
2017-10-22 09:00:00 9.1 14 Norte 26 Nordeste 0 -- -- 76
2017-10-22 08:00:00 9.7 18 Nordeste 26 Nordeste 0 -- -- 74
2017-10-22 07:00:00 9.5 18 Norte 23 Norte 0 -- -- 78
2017-10-22 06:00:00 10 17 Norte 22 Norte 0 -- -- 76
2017-10-22 05:00:00 9 14 Norte 20 Norte 0 -- -- 82
2017-10-22 04:00:00 9.7 14 Norte 17 Norte 0 -- -- 78
2017-10-22 03:00:00 9.9 13 Noroeste 19 Norte 0 -- -- 77
2017-10-22 02:00:00 10.9 12 Norte 18 Norte 0 -- -- 74
2017-10-22 01:00:00 11.5 14 Noroeste 17 Noroeste 0 -- -- 73
2017-10-22 00:00:00 12.3 14 Noroeste 17 Norte 0 -- -- 69
2017-10-21 23:00:00 13.1 15 Norte 19 Norte 0 -- -- 66
2017-10-21 22:00:00 13.6 15 Norte 20 Norte 0 -- -- 65
2017-10-21 21:00:00 14.7 13 Norte 21 Norte 0 -- -- 60
2017-10-21 20:00:00 16.6 17 Norte 32 Norte 0 -- -- 52
2017-10-21 19:00:00 19.5 23 Norte 29 Norte 0 -- -- 41
2017-10-21 18:00:00 20.2 22 Noroeste 31 Noroeste 0 -- -- 45
2017-10-21 17:00:00 20.8 19 Noroeste 32 Noroeste 0 -- -- 51
2017-10-21 16:00:00 21.2 20 Noroeste 27 Oeste 0 -- -- 56
2017-10-21 15:00:00 21.1 14 Noroeste 26 Noroeste 0 -- -- 66
2017-10-21 14:00:00 20.8 12 Noroeste 20 Noroeste 0 -- -- 67
2017-10-21 13:00:00 19 11 Noroeste 19 Noroeste 0 -- -- 78
2017-10-21 12:00:00 17.3 14 Noroeste 19 Oeste 0 -- -- 88
2017-10-21 11:00:00 16.6 17 Oeste 24 Oeste 0 -- -- 93
2017-10-21 10:00:00 16.3 10 Oeste 15 Oeste 0 -- -- 98
2017-10-21 09:00:00 15.6 14 Oeste 20 Oeste 0 -- -- 98
2017-10-21 08:00:00 15.4 13 Oeste 17 Oeste 0 -- -- 98
2017-10-21 07:00:00 16 9 Oeste 16 Oeste 0 -- -- 97
2017-10-21 06:00:00 16.6 13 Oeste 19 Oeste 0 -- -- 96
2017-10-21 05:00:00 16.6 10 Oeste 18 Oeste 0 -- -- 97
2017-10-21 04:00:00 16.6 10 Oeste 19 Oeste 0 -- -- 96
2017-10-21 03:00:00 17.5 10 Oeste 22 Oeste 0 -- -- 93
2017-10-21 02:00:00 17.8 15 Oeste 21 Oeste 0 -- -- 95
2017-10-21 01:00:00 17.9 10 Oeste 18 Oeste 0 -- -- 96
2017-10-21 00:00:00 18.2 13 Oeste 22 Oeste 0 -- -- 95
2017-10-20 23:00:00 18.2 15 Oeste 22 Oeste 0 -- -- 96
2017-10-20 22:00:00 18.4 10 Sudoeste 17 Sudoeste 0 -- -- 97
2017-10-20 21:00:00 18.5 13 Sudoeste 18 Oeste 0 -- -- 97
2017-10-20 20:00:00 18.9 13 Sudoeste 17 Sur 0 -- -- 97
2017-10-20 19:00:00 18.9 14 Sur 19 Sur 0.2 -- -- 96
2017-10-20 18:00:00 19.1 12 Sur 21 Sur 0 -- -- 93
2017-10-20 17:00:00 19.4 15 Sudoeste 23 Sudoeste 0 -- -- 95
2017-10-20 16:00:00 20.1 13 Sur 21 Sur 0 -- -- 86
2017-10-20 15:00:00 19.9 11 Sur 16 Sur 0 -- -- 87
2017-10-20 14:00:00 18.5 8 Sur 15 Sur 0 -- -- 93
2017-10-20 13:00:00 17.8 11 Sur 14 Sur 0 -- -- 96
2017-10-20 12:00:00 17.2 10 Sur 15 Sur 0 -- -- 98
2017-10-20 11:00:00 16.4 6 Sudeste 10 Sudeste 0.4 -- -- 98
2017-10-20 10:00:00 15.7 6 Sur 10 Sur 0.2 -- -- 98
2017-10-20 09:00:00 15.4 6 Sur 12 Sur 0 -- -- 98
2017-10-20 08:00:00 15.5 6 Sur 11 Sudeste 0.2 -- -- 97
2017-10-20 07:00:00 15.7 9 Noroeste 13 Noroeste 0 -- -- 97
2017-10-20 06:00:00 15.9 9 Noroeste 18 Noroeste 0 -- -- 94
2017-10-20 05:00:00 15.9 9 Oeste 16 Oeste 0 -- -- 92
2017-10-20 04:00:00 15.6 4 Sudoeste 14 Sudoeste 0 -- -- 92
2017-10-20 03:00:00 15.4 9 Sudoeste 12 Sudoeste 0 -- -- 91
2017-10-20 02:00:00 15.4 8 Sudoeste 15 Oeste 0 -- -- 90
2017-10-20 01:00:00 15.4 7 Sudoeste 16 Sudoeste 0 -- -- 91
2017-10-20 00:00:00 15.5 12 Oeste 18 Oeste 0 -- -- 89
2017-10-19 23:00:00 15.2 10 Oeste 18 Oeste 0 -- -- 88
2017-10-19 22:00:00 14.9 13 Oeste 17 Oeste 0 -- -- 86
2017-10-19 21:00:00 15.7 13 Oeste 18 Oeste 0 -- -- 83
2017-10-19 20:00:00 16.5 12 Oeste 23 Oeste 0 -- -- 80
2017-10-19 19:00:00 16.9 14 Oeste 23 Oeste 0 -- -- 77
2017-10-19 18:00:00 17.3 18 Oeste 26 Noroeste 0 -- -- 71
2017-10-19 17:00:00 17.8 14 Oeste 29 Oeste 0 -- -- 63
2017-10-19 16:00:00 18.5 18 Noroeste 22 Noroeste 0 -- -- 56
2017-10-19 15:00:00 18.1 14 Oeste 21 Oeste 0 -- -- 52
2017-10-19 14:00:00 16.8 13 Oeste 21 Oeste 0 -- -- 64
2017-10-19 13:00:00 15 11 Oeste 17 Oeste 0 -- -- 75
2017-10-19 12:00:00 13.9 10 Oeste 13 Sudoeste 0 -- -- 84
2017-10-19 11:00:00 13.4 4 Oeste 10 Oeste 0 -- -- 80
2017-10-19 10:00:00 11.2 4 Noroeste 7 Noroeste 0 -- -- 86
2017-10-19 09:00:00 10.3 6 Noroeste 8 Noroeste 0 -- -- 90
2017-10-19 08:00:00 10.2 8 Noroeste 10 Noroeste 0 -- -- 94
2017-10-19 07:00:00 10.5 4 Oeste 6 Noroeste 0 -- -- 93
2017-10-19 06:00:00 10.3 7 Noroeste 15 Noroeste 0 -- -- 94
2017-10-19 05:00:00 10.6 13 Noroeste 15 Noroeste 0 -- -- 93
2017-10-19 04:00:00 11 10 Noroeste 13 Noroeste 0 -- -- 89
2017-10-19 03:00:00 11.4 12 Noroeste 13 Noroeste 0 -- -- 86
2017-10-19 02:00:00 11.7 9 Noroeste 14 Noroeste 0 -- -- 85
2017-10-19 01:00:00 12.7 10 Oeste 18 Oeste 0 -- -- 79
2017-10-19 00:00:00 13.4 13 Sudoeste 18 Oeste 0 -- -- 75
2017-10-18 23:00:00 14 9 Sudoeste 12 Sudoeste 0 -- -- 70
2017-10-18 22:00:00 14.4 12 Oeste 16 Oeste 0 -- -- 69
2017-10-18 21:00:00 14.5 11 Oeste 15 Oeste 0 -- -- 66
2017-10-18 20:00:00 15.7 14 Oeste 27 Oeste 0 -- -- 63
2017-10-18 19:00:00 17.5 22 Oeste 33 Oeste 0 -- -- 53
2017-10-18 18:00:00 18.3 27 Oeste 38 Oeste 0 -- -- 50
2017-10-18 17:00:00 18.8 22 Oeste 35 Oeste 0 -- -- 51
2017-10-18 16:00:00 19 18 Oeste 33 Oeste 0 -- -- 52
2017-10-18 15:00:00 17.8 24 Oeste 38 Oeste 0 -- -- 54
2017-10-18 14:00:00 16.7 22 Oeste 30 Oeste 0 -- -- 63
2017-10-18 13:00:00 15.1 17 Oeste 25 Oeste 0 -- -- 76
2017-10-18 12:00:00 14.3 17 Oeste 21 Oeste 0 -- -- 85
2017-10-18 11:00:00 13.2 15 Oeste 22 Oeste 0 -- -- 94
2017-10-18 10:00:00 12.4 10 Sudoeste 15 Sudoeste 0 -- -- 97
2017-10-18 09:00:00 12.2 11 Sudoeste 16 Sur 0 -- -- 97
2017-10-18 08:00:00 12.1 12 Sur 19 Sudoeste 0.6 -- -- 97
2017-10-18 07:00:00 12 12 Sudoeste 21 Sur 1.2 -- -- 96
2017-10-18 06:00:00 12 13 Sur 22 Sur 3 -- -- 95
2017-10-18 05:00:00 12.1 10 Sur 22 Sur 1.2 -- -- 93
2017-10-18 04:00:00 12.6 18 Sur 26 Sur 1 -- -- 90
2017-10-18 03:00:00 13 16 Sur 23 Sur 1.2 -- -- 84
2017-10-18 02:00:00 14 8 Sudoeste 12 Sudoeste 0.4 -- -- 76
2017-10-18 01:00:00 14.7 4 Sur 9 Sudoeste 0 -- -- 68
2017-10-18 00:00:00 15.4 8 Oeste 13 Oeste 0 -- -- 61
2017-10-17 23:00:00 15.4 9 Sudoeste 12 Sudoeste 0 -- -- 63
2017-10-17 22:00:00 16.1 10 Sudoeste 15 Sudoeste 0 -- -- 57
2017-10-17 21:00:00 16.2 10 Sudoeste 19 Sudoeste 0 -- -- 56
2017-10-17 20:00:00 17.1 14 Sudoeste 27 Sudoeste 0 -- -- 56
2017-10-17 19:00:00 19 23 Sudoeste 41 Sudoeste 0 -- -- 49
2017-10-17 18:00:00 20.3 32 Sudoeste 42 Sudoeste 0 -- -- 44
2017-10-17 17:00:00 20.5 24 Sudoeste 36 Sudoeste 0 -- -- 47
2017-10-17 16:00:00 20.9 22 Sudoeste 39 Sudoeste 0 -- -- 49
2017-10-17 15:00:00 20.6 19 Sudoeste 32 Sudoeste 0 -- -- 56
2017-10-17 14:00:00 19.2 23 Sudoeste 29 Sudoeste 0 -- -- 61
2017-10-17 13:00:00 18.1 14 Sudoeste 22 Sudoeste 0 -- -- 86
2017-10-17 12:00:00 16.5 15 Oeste 37 Oeste 0 -- -- 89
2017-10-17 11:00:00 17 18 Sur 29 Sur 0 -- -- 95
2017-10-17 10:00:00 16.7 19 Sur 32 Sur 0.2 -- -- 94
2017-10-17 09:00:00 16.7 21 Sur 29 Sur 0 -- -- 94
2017-10-17 08:00:00 16.6 22 Sur 39 Sur 7.6 -- -- 94
2017-10-17 07:00:00 18.7 24 Sur 32 Sur 0.4 -- -- 81
2017-10-17 06:00:00 18.9 14 Sur 25 Sur 0 -- -- 76
2017-10-17 05:00:00 19 17 Sur 24 Sudoeste 0 -- -- 75
2017-10-17 04:00:00 19.5 20 Sudoeste 27 Sudoeste 0 -- -- 70
2017-10-17 03:00:00 19.5 14 Sur 20 Sur 0 -- -- 64
2017-10-17 02:00:00 19.9 11 Sur 16 Sur 0 -- -- 60
2017-10-17 01:00:00 20.3 9 Sur 13 Sudeste 0 -- -- 53
2017-10-17 00:00:00 20.6 9 Sudeste 13 Sudeste 0 -- -- 51
2017-10-16 23:00:00 20.9 4 Sudeste 8 Sudeste 0 -- -- 47
2017-10-16 22:00:00 20.9 4 Sudeste 8 Sudeste 0 -- -- 46
2017-10-16 21:00:00 21.4 5 Oeste 10 Oeste 0 -- -- 45
2017-10-16 20:00:00 21.6 7 Oeste 15 Oeste 0 -- -- 43
2017-10-16 19:00:00 22.7 12 Oeste 19 Oeste 0 -- -- 38
2017-10-16 18:00:00 23.3 16 Oeste 24 Oeste 0 -- -- 35
2017-10-16 17:00:00 25.4 17 Sudoeste 22 Sudoeste 0 -- -- 31
2017-10-16 16:00:00 25.5 16 Sur 27 Sur 0 -- -- 31
2017-10-16 15:00:00 26.5 20 Sur 30 Sur 0 -- -- 29
2017-10-16 14:00:00 26.8 17 Sur 32 Sur 0 -- -- 27
2017-10-16 13:00:00 26.1 21 Sur 35 Sur 0 -- -- 27
2017-10-16 12:00:00 24.6 16 Sudeste 30 Sudeste 0 -- -- 28
2017-10-16 11:00:00 22.7 20 Sudeste 31 Sudeste 0 -- -- 30
2017-10-16 10:00:00 20.4 11 Sudeste 23 Sudeste 0 -- -- 33
2017-10-16 09:00:00 17.9 13 Sudeste 19 Sudeste 0 -- -- 37
2017-10-16 08:00:00 18.4 11 Sudeste 16 Sudeste 0 -- -- 36
2017-10-16 07:00:00 18.9 11 Sudeste 18 Sudeste 0 -- -- 35
2017-10-16 06:00:00 19.4 9 Este 13 Este 0 -- -- 35
2017-10-16 05:00:00 20.4 6 Sudeste 13 Sudeste 0 -- -- 34
2017-10-16 04:00:00 20.2 9 Sur 20 Sur 0 -- -- 35
2017-10-16 03:00:00 20.4 11 Sudeste 21 Sudeste 0 -- -- 34
2017-10-16 02:00:00 21.3 15 Sudeste 21 Sudeste 0 -- -- 32
2017-10-16 01:00:00 21.8 13 Sudeste 21 Sudeste 0 -- -- 31
2017-10-16 00:00:00 22.9 9 Sur 13 Sudeste 0 -- -- 30
2017-10-15 23:00:00 24.2 10 Sur 13 Sur 0 -- -- 28
2017-10-15 22:00:00 25.1 10 Sur 14 Sur 0 -- -- 26
2017-10-15 21:00:00 25.8 10 Sur 18 Sudoeste 0 -- -- 25
2017-10-15 20:00:00 27.9 15 Sur 34 Sur 0 -- -- 23
2017-10-15 19:00:00 31 22 Sur 36 Sur 0 -- -- 21
2017-10-15 18:00:00 32 29 Sur 44 Sur 0 -- -- 20
2017-10-15 17:00:00 33.3 24 Sur 41 Sudeste 0 -- -- 19
2017-10-15 16:00:00 32.9 24 Sur 43 Sudeste 0 -- -- 20
2017-10-15 15:00:00 32.7 25 Sudeste 43 Sudeste 0 -- -- 20
2017-10-15 14:00:00 32.4 22 Sur 37 Sur 0 -- -- 20
2017-10-15 13:00:00 31 15 Sudeste 27 Sudeste 0 -- -- 24
2017-10-15 12:00:00 28.1 18 Sudeste 36 Sudeste 0 -- -- 28
2017-10-15 11:00:00 26.9 24 Sudeste 37 Sudeste 0 -- -- 29
2017-10-15 10:00:00 23.5 16 Este 26 Este 0 -- -- 36
2017-10-15 09:00:00 21.9 10 Sudeste 26 Este 0 -- -- 38
2017-10-15 08:00:00 22.1 14 Este 19 Este 0 -- -- 38
2017-10-15 07:00:00 21.7 11 Este 14 Nordeste 0 -- -- 40
2017-10-15 06:00:00 21.8 8 Este 10 Este 0 -- -- 39
2017-10-15 05:00:00 22.5 9 Este 13 Este 0 -- -- 37
2017-10-15 04:00:00 23.4 12 Este 17 Este 0 -- -- 36
2017-10-15 03:00:00 22.7 4 Nordeste 13 Sudeste 0 -- -- 38
2017-10-15 02:00:00 25.9 5 Sudeste 10 Sudeste 0 -- -- 31
2017-10-15 01:00:00 25.7 6 Sudeste 14 Sudeste 0 -- -- 31
2017-10-15 00:00:00 24.8 9 Este 13 Sudeste 0 -- -- 33
2017-10-14 23:00:00 24.2 12 Este 15 Nordeste 0 -- -- 35
2017-10-14 22:00:00 23.8 14 Nordeste 17 Nordeste 0 -- -- 35
2017-10-14 21:00:00 23.8 14 Nordeste 15 Nordeste 0 -- -- 36
2017-10-14 20:00:00 25.4 10 Norte 14 Noroeste 0 -- -- 32
2017-10-14 19:00:00 27.7 8 Nordeste 17 Nordeste 0 -- -- 28
2017-10-14 18:00:00 30 6 Este 12 Nordeste 0 -- -- 25
2017-10-14 17:00:00 30.6 6 Sudeste 13 Sudeste 0 -- -- 25
2017-10-14 16:00:00 29.4 5 Sudeste 15 Sudeste 0 -- -- 26
2017-10-14 15:00:00 29.1 5 Sudeste 12 Sudeste 0 -- -- 26
2017-10-14 14:00:00 29.2 5 Sudeste 13 Este 0 -- -- 26
2017-10-14 13:00:00 27 8 Este 21 Este 0 -- -- 33
2017-10-14 12:00:00 23 10 Nordeste 13 Nordeste 0 -- -- 39
2017-10-14 11:00:00 21.8 6 Este 12 Este 0 -- -- 44
2017-10-14 10:00:00 17.9 10 Este 13 Este 0 -- -- 54
2017-10-14 09:00:00 17.8 9 Este 12 Este 0 -- -- 53
2017-10-14 08:00:00 18.2 9 Este 11 Este 0 -- -- 56
2017-10-14 07:00:00 18.2 9 Este 10 Este 0 -- -- 55
2017-10-14 06:00:00 18.5 4 Este 5 Sudeste 0 -- -- 57
2017-10-14 05:00:00 18.9 4 Sudeste 7 Nordeste 0 -- -- 54
2017-10-14 04:00:00 19.3 4 Norte 5 Norte 0 -- -- 52
2017-10-14 03:00:00 19 4 Norte 12 Noroeste 0 -- -- 52
2017-10-14 02:00:00 19.3 10 Noroeste 11 Noroeste 0 -- -- 48
2017-10-14 01:00:00 20.4 4 Norte 5 Noroeste 0 -- -- 42
2017-10-14 00:00:00 20.7 4 Noroeste 8 Oeste 0 -- -- 40
2017-10-13 23:00:00 21 7 Oeste 11 Oeste 0 -- -- 41
2017-10-13 22:00:00 21.9 8 Oeste 11 Oeste 0 -- -- 38
2017-10-13 21:00:00 22 11 Oeste 17 Noroeste 0 -- -- 35
2017-10-13 20:00:00 24.4 14 Oeste 21 Oeste 0 -- -- 28
2017-10-13 19:00:00 28.2 12 Noroeste 19 Oeste 0 -- -- 24
2017-10-13 18:00:00 29 12 Oeste 21 Oeste 0 -- -- 26
2017-10-13 17:00:00 29 13 Sudoeste 27 Oeste 0 -- -- 28
2017-10-13 16:00:00 28.5 13 Sudoeste 26 Sudoeste 0 -- -- 29
2017-10-13 15:00:00 27.6 11 Oeste 27 Sudoeste 0 -- -- 32
2017-10-13 14:00:00 27.1 11 Sur 22 Sur 0 -- -- 35
2017-10-13 13:00:00 25.7 10 Sudoeste 18 Sudoeste 0 -- -- 38
2017-10-13 12:00:00 24.6 8 Sur 14 Sur 0 -- -- 42
2017-10-13 11:00:00 22.3 4 Sudeste 8 Sudeste 0 -- -- 48
2017-10-13 10:00:00 17.9 2 Noroeste 5 Norte 0 -- -- 64
2017-10-13 09:00:00 17 5 Norte 8 Nordeste 0 -- -- 68
2017-10-13 08:00:00 17.5 6 Nordeste 8 Nordeste 0 -- -- 60
2017-10-13 07:00:00 17.8 3 Este 6 Sudeste 0 -- -- 54
2017-10-13 06:00:00 18 3 Norte 9 Noroeste 0 -- -- 51
2017-10-13 05:00:00 18.9 7 Noroeste 11 Sudoeste 0 -- -- 50
2017-10-13 04:00:00 19.6 8 Sudoeste 10 Sudoeste 0 -- -- 47
2017-10-13 03:00:00 19.4 8 Sudoeste 10 Sur 0 -- -- 46
2017-10-13 02:00:00 20.5 7 Sur 8 Sudoeste 0 -- -- 45
2017-10-13 01:00:00 21.6 6 Sur 8 Sur 0 -- -- 43
2017-10-13 00:00:00 22.1 6 Sur 12 Oeste 0 -- -- 42
2017-10-12 23:00:00 22.9 12 Oeste 14 Oeste 0 -- -- 40
2017-10-12 22:00:00 23.6 12 Oeste 15 Sur 0 -- -- 39
2017-10-12 21:00:00 23.7 13 Sur 21 Sur 0 -- -- 39
2017-10-12 20:00:00 25.7 17 Sudoeste 29 Sudoeste 0 -- -- 34
2017-10-12 19:00:00 28.8 20 Sur 31 Sur 0 -- -- 28
2017-10-12 18:00:00 30.2 22 Sudoeste 33 Sur 0 -- -- 26
2017-10-12 17:00:00 30.7 17 Sur 33 Sudoeste 0 -- -- 23
2017-10-12 16:00:00 31.3 20 Sudoeste 33 Sudoeste 0 -- -- 22
2017-10-12 15:00:00 31.1 11 Sur 24 Sudeste 0 -- -- 22
2017-10-12 14:00:00 30.2 11 Sur 24 Sur 0 -- -- 23
2017-10-12 13:00:00 28.5 6 Sudeste 18 Sudeste 0 -- -- 23
2017-10-12 12:00:00 26.3 10 Este 20 Este 0 -- -- 24
2017-10-12 11:00:00 24.4 12 Este 21 Este 0 -- -- 25
2017-10-12 10:00:00 19.6 13 Este 18 Este 0 -- -- 31
2017-10-12 09:00:00 17.7 14 Este 21 Este 0 -- -- 33
2017-10-12 08:00:00 17.8 17 Este 21 Este 0 -- -- 32
2017-10-12 07:00:00 18.2 15 Este 17 Este 0 -- -- 31
2017-10-12 06:00:00 18.3 8 Este 17 Este 0 -- -- 30
2017-10-12 05:00:00 19.3 14 Este 17 Este 0 -- -- 29
2017-10-12 04:00:00 19.9 14 Nordeste 16 Este 0 -- -- 28
2017-10-12 03:00:00 22 9 Este 14 Sudeste 0 -- -- 24
2017-10-12 02:00:00 19.7 9 Este 17 Nordeste 0 -- -- 28
2017-10-12 01:00:00 23.7 8 Este 12 Este 0 -- -- 22
2017-10-12 00:00:00 23.9 9 Este 14 Este 0 -- -- 22
2017-10-11 23:00:00 24.2 9 Sudeste 12 Sudeste 0 -- -- 22
2017-10-11 22:00:00 24.4 6 Nordeste 9 Este 0 -- -- 21
2017-10-11 21:00:00 25.5 -- -- -- -- 0 -- -- 20
2017-10-11 20:00:00 26.3 2 Nordeste 3 Norte 0 -- -- 19
2017-10-11 19:00:00 28.6 3 Noroeste 15 Oeste 0 -- -- 18
2017-10-11 18:00:00 28.9 8 Norte 21 Noroeste 0 -- -- 18
2017-10-11 17:00:00 29.4 8 Oeste 18 Oeste 0 -- -- 19
2017-10-11 16:00:00 28.7 9 Noroeste 21 Oeste 0 -- -- 19
2017-10-11 15:00:00 28.1 7 Noroeste 18 Noroeste 0 -- -- 20
2017-10-11 14:00:00 27.6 3 Noroeste 12 Oeste 0 -- -- 21
2017-10-11 13:00:00 26.3 5 Sur 13 Sudoeste 0 -- -- 24
2017-10-11 12:00:00 23.3 9 Sur 15 Sur 0 -- -- 29
2017-10-11 11:00:00 20.6 9 Sur 14 Sur 0 -- -- 34
2017-10-11 10:00:00 17.3 5 Sur 10 Sudeste 0 -- -- 42
2017-10-11 09:00:00 17.2 6 Sudeste 9 Sudeste 0 -- -- 37
2017-10-11 08:00:00 16.1 0 Calma 5 Sudeste 0 -- -- 38
2017-10-11 07:00:00 18.4 4 Sudeste 6 Sur 0 -- -- 33
2017-10-11 06:00:00 18.7 4 Sudoeste 6 Sudoeste 0 -- -- 33
2017-10-11 05:00:00 19.2 3 Nordeste 8 Sur 0 -- -- 32
2017-10-11 04:00:00 21 5 Sur 9 Sur 0 -- -- 30
2017-10-11 03:00:00 20.2 6 Sur 13 Sur 0 -- -- 31
2017-10-11 02:00:00 22 5 Sudeste 10 Sudeste 0 -- -- 27
2017-10-11 01:00:00 23 5 Este 10 Sudeste 0 -- -- 25
2017-10-11 00:00:00 22.2 5 Nordeste -- -- 0 -- -- 26
2017-10-10 23:00:00 23.2 9 Norte 10 Norte 0 -- -- 24
2017-10-10 22:00:00 23.5 4 Noroeste 11 Noroeste 0 -- -- 25
2017-10-10 21:00:00 24.4 5 Sur 8 Sudoeste 0 -- -- 23
2017-10-10 20:00:00 25.3 7 Sur 18 Sudoeste 0 -- -- 23
2017-10-10 19:00:00 28.3 13 Sur 22 Sudoeste 0 -- -- 20
2017-10-10 18:00:00 29.6 13 Sur 20 Sudoeste 0 -- -- 18
2017-10-10 17:00:00 29.6 3 Norte 19 Sudoeste 0 -- -- 18
2017-10-10 16:00:00 29.7 7 Oeste 18 Sudoeste 0 -- -- 18
2017-10-10 15:00:00 29.4 7 Oeste 14 Oeste 0 -- -- 19
2017-10-10 14:00:00 29.2 4 Sur 11 Sur 0 -- -- 18
2017-10-10 13:00:00 26.8 4 Nordeste 11 Este 0 -- -- 19
2017-10-10 12:00:00 24.8 5 Este 14 Nordeste 0 -- -- 21
2017-10-10 11:00:00 21.1 10 Este 15 Este 0 -- -- 26
2017-10-10 10:00:00 17.2 10 Este 13 Nordeste 0 -- -- 32
2017-10-10 09:00:00 16.9 4 Nordeste 8 Sur 0 -- -- 33
2017-10-10 08:00:00 17 5 Sur 9 Sur 0 -- -- 31
2017-10-10 07:00:00 16.8 7 Sur 10 Sudeste 0 -- -- 33
2017-10-10 06:00:00 18.4 6 Nordeste 10 Noroeste 0 -- -- 32
2017-10-10 05:00:00 19.5 7 Noroeste 8 Noroeste 0 -- -- 30
2017-10-10 04:00:00 19.8 6 Oeste 8 Oeste 0 -- -- 29
2017-10-10 03:00:00 19.8 7 Oeste 11 Oeste 0 -- -- 27
2017-10-10 02:00:00 20.2 8 Oeste 10 Noroeste 0 -- -- 27
2017-10-10 01:00:00 21 9 Noroeste 13 Noroeste 0 -- -- 24
2017-10-10 00:00:00 21.4 11 Noroeste 14 Noroeste 0 -- -- 23
2017-10-09 23:00:00 21.4 12 Noroeste 14 Noroeste 0 -- -- 23
2017-10-09 22:00:00 22.5 11 Noroeste 14 Noroeste 0 -- -- 22
2017-10-09 21:00:00 23.8 12 Noroeste 16 Oeste 0 -- -- 20
2017-10-09 20:00:00 26.9 3 Noroeste -- -- 0 -- -- 14
2017-10-09 19:00:00 28.8 5 Noroeste 11 Noroeste 0 -- -- 14
2017-10-09 18:00:00 29.8 6 Noroeste 13 Noroeste 0 -- -- 13
2017-10-09 17:00:00 29.9 7 Norte 12 Norte 0 -- -- 14
2017-10-09 16:00:00 29.7 9 Norte 13 Norte 0 -- -- 17
2017-10-09 15:00:00 29 7 Noroeste 13 Noroeste 0 -- -- 18
2017-10-09 14:00:00 27.8 5 Noroeste 12 Norte 0 -- -- 19
2017-10-09 13:00:00 27 5 Nordeste 12 Este 0 -- -- 20
2017-10-09 12:00:00 24.7 8 Este 15 Este 0 -- -- 24
2017-10-09 11:00:00 21.4 10 Nordeste 14 Nordeste 0 -- -- 29
2017-10-09 10:00:00 17.1 9 Norte 13 Nordeste 0 -- -- 36
2017-10-09 09:00:00 16 9 Norte 9 Norte 0 -- -- 34
2017-10-09 08:00:00 16.6 7 Norte 8 Norte 0 -- -- 34
2017-10-09 07:00:00 17.3 3 Noroeste 11 Nordeste 0 -- -- 31
2017-10-09 06:00:00 17.1 11 Nordeste 12 Norte 0 -- -- 32
2017-10-09 05:00:00 18.3 10 Noroeste 12 Noroeste 0 -- -- 28
2017-10-09 04:00:00 19.1 8 Noroeste 9 Noroeste 0 -- -- 26
2017-10-09 03:00:00 20.2 6 Noroeste 8 Noroeste 0 -- -- 25
2017-10-09 02:00:00 21.1 8 Noroeste 14 Noroeste 0 -- -- 24
2017-10-09 01:00:00 21.5 12 Noroeste 15 Noroeste 0 -- -- 24
2017-10-09 00:00:00 23.1 10 Noroeste 12 Noroeste 0 -- -- 23
2017-10-08 23:00:00 23.7 9 Oeste 12 Oeste 0 -- -- 23
2017-10-08 22:00:00 24.7 10 Oeste 10 Oeste 0 -- -- 22
2017-10-08 21:00:00 25.6 10 Sudoeste 11 Sudoeste 0 -- -- 21
2017-10-08 20:00:00 27.2 5 Oeste 10 Noroeste 0 -- -- 19
2017-10-08 19:00:00 29.6 5 Oeste 17 Noroeste 0 -- -- 17
2017-10-08 18:00:00 30.1 8 Oeste 16 Noroeste 0 -- -- 18
2017-10-08 17:00:00 30.3 7 Norte 12 Norte 0 -- -- 18
2017-10-08 16:00:00 29.9 8 Oeste 15 Oeste 0 -- -- 20
2017-10-08 15:00:00 28.9 4 Norte 13 Sur 0 -- -- 22
2017-10-08 14:00:00 27.8 6 Sudeste 15 Sur 0 -- -- 23
2017-10-08 13:00:00 26.5 6 Sur 13 Sudeste 0 -- -- 24
2017-10-08 12:00:00 24.4 8 Sudeste 17 Sudeste 0 -- -- 24
2017-10-08 11:00:00 22.6 10 Sudeste 18 Este 0 -- -- 27
2017-10-08 10:00:00 17.9 13 Este 27 Este 0 -- -- 37
2017-10-08 09:00:00 16 19 Este 28 Este 0 -- -- 37
2017-10-08 08:00:00 15.7 19 Este 23 Este 0 -- -- 31
2017-10-08 07:00:00 16.8 15 Este 22 Este 0 -- -- 29
2017-10-08 06:00:00 17.2 18 Este 23 Este 0 -- -- 26
2017-10-08 05:00:00 17.2 14 Nordeste 18 Nordeste 0 -- -- 25
2017-10-08 04:00:00 18.9 11 Este 25 Este 0 -- -- 22
2017-10-08 03:00:00 19.9 21 Nordeste 27 Este 0 -- -- 20
2017-10-08 02:00:00 20.9 20 Nordeste 26 Nordeste 0 -- -- 17
2017-10-08 01:00:00 20.6 18 Nordeste 25 Este 0 -- -- 14
2017-10-08 00:00:00 22.3 20 Este 26 Este 0 -- -- 14
2017-10-07 23:00:00 22.9 14 Este 23 Este 0 -- -- 12
2017-10-07 22:00:00 23 18 Este 23 Este 0 -- -- 12
2017-10-07 21:00:00 23.6 15 Nordeste 23 Nordeste 0 -- -- 13
2017-10-07 20:00:00 25.4 14 Nordeste 18 Nordeste 0 -- -- 13
2017-10-07 19:00:00 28.8 14 Nordeste 21 Nordeste 0 -- -- 13
2017-10-07 18:00:00 29.8 13 Este 22 Este 0 -- -- 14
2017-10-07 17:00:00 30.3 13 Este 25 Este 0 -- -- 15
2017-10-07 16:00:00 29.7 14 Nordeste 28 Nordeste 0 -- -- 15
2017-10-07 15:00:00 29.1 20 Nordeste 34 Este 0 -- -- 13
2017-10-07 14:00:00 27.9 24 Nordeste 39 Este 0 -- -- 13
2017-10-07 13:00:00 26.7 29 Nordeste 40 Este 0 -- -- 13
2017-10-07 12:00:00 24.9 30 Este 46 Este 0 -- -- 15
2017-10-07 11:00:00 22.9 30 Nordeste 41 Nordeste 0 -- -- 17
2017-10-07 10:00:00 19.5 21 Nordeste 32 Nordeste 0 -- -- 30
2017-10-07 09:00:00 17.2 22 Nordeste 28 Nordeste 0 -- -- 34
2017-10-07 08:00:00 17.1 18 Nordeste 27 Nordeste 0 -- -- 36
2017-10-07 07:00:00 18.1 19 Nordeste 30 Nordeste 0 -- -- 36
2017-10-07 06:00:00 17.9 20 Nordeste 28 Nordeste 0 -- -- 38
2017-10-07 05:00:00 19.1 22 Nordeste 29 Nordeste 0 -- -- 36
2017-10-07 04:00:00 20 20 Nordeste 31 Nordeste 0 -- -- 35
2017-10-07 03:00:00 21 25 Nordeste 39 Nordeste 0 -- -- 34
2017-10-07 02:00:00 22 30 Nordeste 39 Nordeste 0 -- -- 34
2017-10-07 01:00:00 22.8 26 Nordeste 36 Nordeste 0 -- -- 30
2017-10-07 00:00:00 23.7 23 Nordeste 33 Nordeste 0 -- -- 26
2017-10-06 23:00:00 24.6 23 Nordeste 32 Nordeste 0 -- -- 24
2017-10-06 22:00:00 25.5 19 Nordeste 27 Nordeste 0 -- -- 21
2017-10-06 21:00:00 26.3 16 Nordeste 24 Nordeste 0 -- -- 23
2017-10-06 20:00:00 29.6 7 Nordeste 16 Nordeste 0 -- -- 23
2017-10-06 19:00:00 31.9 13 Nordeste 22 Nordeste 0 -- -- 21
2017-10-06 18:00:00 32.6 11 Nordeste 21 Nordeste 0 -- -- 20
2017-10-06 17:00:00 33.1 11 Norte 27 Norte 0 -- -- 21
2017-10-06 16:00:00 32.7 19 Norte 31 Norte 0 -- -- 21
2017-10-06 15:00:00 32.1 18 Norte 26 Nordeste 0 -- -- 24
2017-10-06 14:00:00 30.7 12 Norte 29 Nordeste 0 -- -- 25
2017-10-06 13:00:00 29.3 16 Norte 25 Norte 0 -- -- 26
2017-10-06 12:00:00 27.6 17 Nordeste 22 Nordeste 0 -- -- 27
2017-10-06 11:00:00 25.5 14 Nordeste 21 Nordeste 0 -- -- 31
2017-10-06 10:00:00 22.1 10 Norte 15 Nordeste 0 -- -- 38
2017-10-06 09:00:00 18.6 10 Norte 12 Norte 0 -- -- 46
2017-10-06 08:00:00 19.7 7 Norte 19 Nordeste 0 -- -- 42
2017-10-06 07:00:00 20.7 17 Norte 25 Norte 0 -- -- 40
2017-10-06 06:00:00 21.2 17 Norte 22 Norte 0 -- -- 38
2017-10-06 05:00:00 20 15 Norte 20 Norte 0 -- -- 42
2017-10-06 04:00:00 20.5 15 Norte 15 Norte 0 -- -- 42
2017-10-06 03:00:00 21.8 10 Norte 14 Noroeste 0 -- -- 37
2017-10-06 02:00:00 23 13 Noroeste 13 Noroeste 0 -- -- 35
2017-10-06 01:00:00 24 6 Noroeste 18 Noroeste 0 -- -- 33
2017-10-06 00:00:00 26.1 11 Norte -- -- 0 -- -- 30
2017-10-05 23:00:00 26.2 11 Noroeste 12 Noroeste 0 -- -- 30
2017-10-05 22:00:00 26.3 10 Noroeste 12 Noroeste 0 -- -- 30
2017-10-05 21:00:00 27.2 8 Noroeste 10 Noroeste 0 -- -- 31
2017-10-05 20:00:00 28.7 10 Noroeste 15 Noroeste 0 -- -- 29
2017-10-05 19:00:00 31.7 4 Norte 17 Nordeste 0 -- -- 25
2017-10-05 18:00:00 32.2 7 Noroeste 17 Este 0 -- -- 26
2017-10-05 17:00:00 32.7 5 Sudeste 17 Nordeste 0 -- -- 26
2017-10-05 16:00:00 31.9 8 Norte 15 Nordeste 0 -- -- 28
2017-10-05 15:00:00 31.1 5 Nordeste 17 Sudoeste 0 -- -- 28
2017-10-05 14:00:00 30.2 6 Este 15 Este 0 -- -- 28
2017-10-05 13:00:00 28.6 4 Sudoeste 10 Oeste 0 -- -- 31
2017-10-05 12:00:00 26.3 2 Sudeste 11 Sudoeste 0 -- -- 34
2017-10-05 11:00:00 24.5 9 Sudoeste 16 Sur 0 -- -- 35
2017-10-05 10:00:00 21.2 3 Nordeste 8 Nordeste 0 -- -- 45
2017-10-05 09:00:00 19.5 8 Nordeste 15 Nordeste 0 -- -- 44
2017-10-05 08:00:00 18 12 Nordeste 13 Nordeste 0 -- -- 49
2017-10-05 07:00:00 19.6 13 Norte 14 Noroeste 0 -- -- 47
2017-10-05 06:00:00 20.5 9 Noroeste 10 Noroeste 0 -- -- 42
2017-10-05 05:00:00 21.6 4 Norte 7 Norte 0 -- -- 40
2017-10-05 04:00:00 21.3 2 Noroeste 8 Noroeste 0 -- -- 38
2017-10-05 03:00:00 22.5 7 Noroeste 13 Noroeste 0 -- -- 36
2017-10-05 02:00:00 22 10 Norte 13 Noroeste 0 -- -- 37
2017-10-05 01:00:00 22 11 Noroeste 13 Noroeste 0 -- -- 38
2017-10-05 00:00:00 22.9 12 Noroeste 19 Noroeste 0 -- -- 35
2017-10-04 23:00:00 23.4 14 Noroeste 16 Noroeste 0 -- -- 33
2017-10-04 22:00:00 24.6 15 Noroeste 17 Noroeste 0 -- -- 31
2017-10-04 21:00:00 26.1 12 Oeste 22 Oeste 0 -- -- 28
2017-10-04 20:00:00 29.4 15 Oeste 21 Sudoeste 0 -- -- 26
2017-10-04 19:00:00 31.9 9 Sudoeste 20 Sudoeste 0 -- -- 25
2017-10-04 18:00:00 32.2 10 Sur 24 Sudoeste 0 -- -- 24
2017-10-04 17:00:00 31.9 10 Sudoeste 20 Sur 0 -- -- 24
2017-10-04 16:00:00 30.5 14 Sudoeste 22 Sudoeste 0 -- -- 25
2017-10-04 15:00:00 30 12 Sur 22 Sur 0 -- -- 27
2017-10-04 14:00:00 30.2 9 Sur 20 Sudeste 0 -- -- 28
2017-10-04 13:00:00 29.1 9 Sudeste 18 Sudeste 0 -- -- 30
2017-10-04 12:00:00 27.4 8 Sudeste 23 Sudeste 0 -- -- 35
2017-10-04 11:00:00 24.8 17 Sudeste 28 Sudeste 0 -- -- 42
2017-10-04 10:00:00 22.1 20 Este 32 Este 0 -- -- 50
2017-10-04 09:00:00 19.5 10 Sudeste 14 Este 0 -- -- 55
2017-10-04 08:00:00 19.5 14 Este 19 Nordeste 0 -- -- 52
2017-10-04 07:00:00 20.6 4 Nordeste 8 Sudeste 0 -- -- 44
2017-10-04 06:00:00 20 6 Sudeste 15 Norte 0 -- -- 45
2017-10-04 05:00:00 20.4 11 Norte 15 Norte 0 -- -- 44
2017-10-04 04:00:00 20.8 15 Norte 16 Norte 0 -- -- 43
2017-10-04 03:00:00 22.4 6 Noroeste 12 Noroeste 0 -- -- 39
2017-10-04 02:00:00 22.3 10 Noroeste 15 Noroeste 0 -- -- 39
2017-10-04 01:00:00 24.4 11 Noroeste 14 Oeste 0 -- -- 35
2017-10-04 00:00:00 24.9 10 Oeste 14 Oeste 0 -- -- 35
2017-10-03 23:00:00 25.4 10 Sudoeste 18 Oeste 0 -- -- 36
2017-10-03 22:00:00 27.3 13 Oeste 21 Oeste 0 -- -- 35
2017-10-03 21:00:00 29.6 5 Sur 6 Sur 0 -- -- 29
2017-10-03 20:00:00 32.5 0 Calma 5 Oeste 0 -- -- 25
2017-10-03 19:00:00 33.6 3 Noroeste 17 Oeste 0 -- -- 24
2017-10-03 18:00:00 33.2 7 Norte 17 Noroeste 0 -- -- 26
2017-10-03 17:00:00 33.4 7 Noroeste 18 Noroeste 0 -- -- 28
2017-10-03 16:00:00 33.3 11 Sudoeste 20 Sudoeste 0 -- -- 28
2017-10-03 15:00:00 32.2 9 Oeste 17 Oeste 0 -- -- 30
2017-10-03 14:00:00 31.6 8 Oeste 14 Sudoeste 0 -- -- 32
2017-10-03 13:00:00 31 5 Este 13 Este 0 -- -- 34
2017-10-03 12:00:00 29.4 6 Sudeste 13 Sudeste 0 -- -- 37
2017-10-03 11:00:00 27.2 11 Sudeste 18 Este 0 -- -- 41
2017-10-03 10:00:00 22.8 7 Este 16 Este 0 -- -- 52
2017-10-03 09:00:00 20.2 14 Nordeste 16 Nordeste 0 -- -- 60
2017-10-03 08:00:00 19.3 13 Nordeste 17 Nordeste 0 -- -- 60
2017-10-03 07:00:00 21 15 Nordeste 18 Nordeste 0 -- -- 54
2017-10-03 06:00:00 21.7 16 Nordeste 17 Nordeste 0 -- -- 51
2017-10-03 05:00:00 21.8 11 Nordeste 13 Nordeste 0 -- -- 51
2017-10-03 04:00:00 23.7 9 Nordeste 12 Nordeste 0 -- -- 46
2017-10-03 03:00:00 24 8 Este 13 Este 0 -- -- 45
2017-10-03 02:00:00 24.4 9 Este 12 Norte 0 -- -- 41
2017-10-03 01:00:00 24.4 9 Norte 12 Norte 0 -- -- 41
2017-10-03 00:00:00 27.4 3 Sudeste 6 Sudeste 0 -- -- 35
2017-10-02 23:00:00 27.2 4 Sur -- -- 0 -- -- 35
2017-10-02 22:00:00 27.3 5 Sur 8 Sudoeste 0 -- -- 36
2017-10-02 21:00:00 28 8 Sudoeste 8 Sur 0 -- -- 35
2017-10-02 20:00:00 30.3 5 Sudeste 12 Este 0 -- -- 32
2017-10-02 19:00:00 31.4 6 Este 20 Nordeste 0 -- -- 31
2017-10-02 18:00:00 32.2 4 Norte 17 Norte 0 -- -- 29
2017-10-02 17:00:00 31.6 9 Nordeste 26 Este 0 -- -- 29
2017-10-02 16:00:00 31.7 7 Sudeste 18 Este 0 -- -- 29
2017-10-02 15:00:00 30.5 9 Norte 21 Este 0 -- -- 30
2017-10-02 14:00:00 29.5 12 Norte 20 Nordeste 0 -- -- 32
2017-10-02 13:00:00 29.1 8 Nordeste 18 Este 0 -- -- 33
2017-10-02 12:00:00 27.5 10 Este 19 Nordeste 0 -- -- 37
2017-10-02 11:00:00 25.6 15 Nordeste 22 Nordeste 0 -- -- 40
2017-10-02 10:00:00 22.7 12 Nordeste 17 Nordeste 0 -- -- 47
2017-10-02 09:00:00 19.2 8 Sudeste 20 Nordeste 0 -- -- 54
2017-10-02 08:00:00 19.3 15 Nordeste 19 Nordeste 0 -- -- 53
2017-10-02 07:00:00 20.1 17 Nordeste 19 Nordeste 0 -- -- 51
2017-10-02 06:00:00 20.5 13 Nordeste 15 Nordeste 0 -- -- 50
2017-10-02 05:00:00 20.6 13 Nordeste 14 Nordeste 0 -- -- 49
2017-10-02 04:00:00 20.9 4 Este 18 Nordeste 0 -- -- 48
2017-10-02 03:00:00 21.7 16 Nordeste 23 Nordeste 0 -- -- 46
2017-10-02 02:00:00 22.1 14 Nordeste 21 Nordeste 0 -- -- 45
2017-10-02 01:00:00 22.9 15 Nordeste 22 Nordeste 0 -- -- 43
2017-10-02 00:00:00 23.3 15 Nordeste 22 Nordeste 0 -- -- 41
2017-10-01 23:00:00 24.5 16 Nordeste 22 Nordeste 0 -- -- 39
2017-10-01 22:00:00 24.7 12 Nordeste 19 Nordeste 0 -- -- 38
2017-10-01 21:00:00 25.8 12 Nordeste 14 Nordeste 0 -- -- 36
2017-10-01 20:00:00 28.4 8 Nordeste 22 Nordeste 0 -- -- 32
2017-10-01 19:00:00 30.2 14 Nordeste 24 Nordeste 0 -- -- 29
2017-10-01 18:00:00 30.6 15 Norte 28 Nordeste 0 -- -- 29
2017-10-01 17:00:00 30.1 21 Nordeste 34 Nordeste 0 -- -- 30
2017-10-01 16:00:00 30 23 Nordeste 35 Nordeste 0 -- -- 29
2017-10-01 15:00:00 29.1 15 Nordeste 30 Nordeste 0 -- -- 32
2017-10-01 14:00:00 28.7 20 Nordeste 30 Nordeste 0 -- -- 33
2017-10-01 13:00:00 27.7 15 Nordeste 27 Nordeste 0 -- -- 34
2017-10-01 12:00:00 25.3 19 Nordeste 26 Nordeste 0 -- -- 39
2017-10-01 11:00:00 22.8 20 Nordeste 28 Nordeste 0 -- -- 44
2017-10-01 10:00:00 19.7 17 Nordeste 27 Norte 0 -- -- 52
2017-10-01 09:00:00 18.1 20 Nordeste 27 Norte 0 -- -- 57
2017-10-01 08:00:00 17.4 22 Nordeste 31 Nordeste 0 -- -- 59
2017-10-01 07:00:00 17.5 21 Norte 26 Nordeste 0 -- -- 58
2017-10-01 06:00:00 17.6 19 Norte 29 Norte 0 -- -- 58
2017-10-01 05:00:00 18.5 22 Norte 28 Norte 0 -- -- 55
2017-10-01 04:00:00 17.6 18 Norte 24 Norte 0 -- -- 58
2017-10-01 03:00:00 17.7 9 Norte 21 Norte 0 -- -- 59
2017-10-01 02:00:00 18.4 15 Norte 18 Norte 0 -- -- 59
2017-10-01 01:00:00 19.5 16 Norte 26 Norte 0 -- -- 57
2017-10-01 00:00:00 20.5 17 Norte 22 Norte 0 -- -- 53
2017-09-30 23:00:00 21.7 17 Norte 22 Norte 0 -- -- 46
2017-09-30 22:00:00 23.2 16 Norte 25 Norte 0 -- -- 42
2017-09-30 21:00:00 24.1 15 Norte 22 Norte 0 -- -- 34
2017-09-30 20:00:00 26.1 18 Noroeste 28 Oeste 0 -- -- 27
2017-09-30 19:00:00 28.1 19 Noroeste 28 Oeste 0 -- -- 20
2017-09-30 18:00:00 28.6 19 Noroeste 29 Noroeste 0 -- -- 22
2017-09-30 17:00:00 29.1 16 Noroeste 32 Noroeste 0 -- -- 27
2017-09-30 16:00:00 28.5 17 Oeste 27 Oeste 0 -- -- 34
2017-09-30 15:00:00 27.4 14 Noroeste 23 Noroeste 0 -- -- 38
2017-09-30 14:00:00 26.6 6 Oeste 18 Noroeste 0 -- -- 40
2017-09-30 13:00:00 24.7 5 Oeste 16 Oeste 0 -- -- 44
2017-09-30 12:00:00 22.3 9 Noroeste 18 Noroeste 0 -- -- 53
2017-09-30 11:00:00 19.5 7 Noroeste 10 Oeste 0 -- -- 64
2017-09-30 10:00:00 16.9 9 Noroeste 13 Oeste 0 -- -- 76
2017-09-30 09:00:00 15.5 8 Oeste 10 Noroeste 0 -- -- 81
2017-09-30 08:00:00 15.2 9 Noroeste 14 Noroeste 0 -- -- 83
2017-09-30 07:00:00 16 7 Oeste 12 Noroeste 0 -- -- 78
2017-09-30 06:00:00 16.2 11 Noroeste 15 Noroeste 0 -- -- 77
2017-09-30 05:00:00 16.7 12 Noroeste 14 Noroeste 0 -- -- 73
2017-09-30 04:00:00 17.5 11 Noroeste 14 Noroeste 0 -- -- 68
2017-09-30 03:00:00 18.3 9 Noroeste 14 Noroeste 0 -- -- 63
2017-09-30 02:00:00 19.2 12 Noroeste 17 Noroeste 0 -- -- 58
2017-09-30 01:00:00 20 10 Noroeste 19 Noroeste 0 -- -- 55
2017-09-30 00:00:00 21.4 17 Noroeste 24 Noroeste 0 -- -- 49
2017-09-29 23:00:00 23.2 21 Noroeste 27 Noroeste 0 -- -- 42
2017-09-29 22:00:00 24 17 Noroeste 23 Oeste 0 -- -- 39
2017-09-29 21:00:00 25.9 18 Noroeste 26 Oeste 0 -- -- 36
2017-09-29 20:00:00 27.7 8 Oeste 16 Oeste 0 -- -- 33
2017-09-29 19:00:00 30.3 10 Oeste 20 Oeste 0 -- -- 30
2017-09-29 18:00:00 30.2 10 Noroeste 22 Sudoeste 0 -- -- 29
2017-09-29 17:00:00 31.3 8 Sudoeste 23 Sudoeste 0 -- -- 27
2017-09-29 16:00:00 31.5 9 Sur 21 Nordeste 0 -- -- 27
2017-09-29 15:00:00 30.5 4 Noroeste 15 Sudeste 0 -- -- 28
2017-09-29 14:00:00 29.3 9 Este 17 Nordeste 0 -- -- 29
2017-09-29 13:00:00 27.8 9 Nordeste 18 Nordeste 0 -- -- 31
2017-09-29 12:00:00 25.4 9 Nordeste 16 Nordeste 0 -- -- 36
2017-09-29 11:00:00 23.5 9 Norte 14 Norte 0 -- -- 41
2017-09-29 10:00:00 20.1 10 Norte 14 Nordeste 0 -- -- 49
2017-09-29 09:00:00 18.4 13 Nordeste 15 Nordeste 0 -- -- 53
2017-09-29 08:00:00 17.5 12 Norte 14 Norte 0 -- -- 55
2017-09-29 07:00:00 17.4 13 Norte 16 Noroeste 0 -- -- 55
2017-09-29 06:00:00 17.8 14 Noroeste 15 Noroeste 0 -- -- 52
2017-09-29 05:00:00 19.9 15 Nordeste 20 Nordeste 0 -- -- 46
2017-09-29 04:00:00 19.5 10 Nordeste 13 Norte 0 -- -- 46
2017-09-29 03:00:00 19.6 10 Norte 12 Norte 0 -- -- 49
2017-09-29 02:00:00 21 10 Norte 13 Norte 0 -- -- 45
2017-09-29 01:00:00 21.9 10 Norte 13 Oeste 0 -- -- 44
2017-09-29 00:00:00 24 8 Noroeste 10 Noroeste 0 -- -- 40
2017-09-28 23:00:00 25.1 6 Oeste 9 Sudoeste 0 -- -- 38
2017-09-28 22:00:00 25.5 6 Sudoeste 10 Sudoeste 0 -- -- 37
2017-09-28 21:00:00 26 9 Oeste 13 Sudoeste 0 -- -- 36
2017-09-28 20:00:00 28 8 Sudoeste 15 Sudoeste 0 -- -- 33
2017-09-28 19:00:00 29.8 12 Sudoeste 25 Sudoeste 0 -- -- 30
2017-09-28 18:00:00 30.4 9 Oeste 24 Sudoeste 0 -- -- 29
2017-09-28 17:00:00 30.4 5 Oeste 18 Sudoeste 0 -- -- 28
2017-09-28 16:00:00 30.4 9 Sudoeste 24 Sur 0 -- -- 28
2017-09-28 15:00:00 29.6 6 Sudoeste 21 Sur 0 -- -- 29
2017-09-28 14:00:00 28.8 10 Sur 18 Sur 0 -- -- 28
2017-09-28 13:00:00 27.5 7 Sudeste 15 Sur 0 -- -- 32
2017-09-28 12:00:00 25.9 8 Sudeste 20 Sudeste 0 -- -- 36
2017-09-28 11:00:00 23.4 11 Sudeste 19 Sudeste 0 -- -- 41
2017-09-28 10:00:00 19.8 5 Sudeste 9 Sudeste 0 -- -- 48
2017-09-28 09:00:00 18.2 3 Sur 9 Sudeste 0 -- -- 53
2017-09-28 08:00:00 17.6 6 Sur 9 Sudeste 0 -- -- 52
2017-09-28 07:00:00 17.9 7 Sudeste 9 Sudeste 0 -- -- 46
2017-09-28 06:00:00 18.7 4 Sur 10 Sudeste 0 -- -- 46
2017-09-28 05:00:00 18.4 7 Sudeste 12 Sur 0 -- -- 44
2017-09-28 04:00:00 18.3 8 Sur 10 Sur 0 -- -- 42
2017-09-28 03:00:00 19.1 10 Sur 14 Sur 0 -- -- 39
2017-09-28 02:00:00 19.7 8 Sur 14 Sur 0 -- -- 35
2017-09-28 01:00:00 20.1 10 Sur 13 Sur 0 -- -- 31
2017-09-28 00:00:00 20.8 9 Sur 12 Sur 0 -- -- 30
2017-09-27 23:00:00 20.9 10 Sur 13 Sur 0 -- -- 28
2017-09-27 22:00:00 21.9 11 Sur 19 Sur 0 -- -- 27
2017-09-27 21:00:00 23.6 15 Sur 21 Sur 0 -- -- 26
2017-09-27 20:00:00 26.6 9 Sur 15 Sur 0 -- -- 24
2017-09-27 19:00:00 28.8 11 Sur 22 Sur 0 -- -- 22
2017-09-27 18:00:00 29.5 11 Sur 27 Sur 0 -- -- 22
2017-09-27 17:00:00 29.2 12 Sur 32 Sudeste 0 -- -- 23
2017-09-27 16:00:00 29.6 13 Sur 26 Sudeste 0 -- -- 23
2017-09-27 15:00:00 29.3 8 Sur 23 Sudeste 0 -- -- 23
2017-09-27 14:00:00 28.5 10 Sur 21 Sur 0 -- -- 25
2017-09-27 13:00:00 26.6 12 Sur 19 Sur 0 -- -- 28
2017-09-27 12:00:00 25 12 Sur 18 Sur 0 -- -- 30
2017-09-27 11:00:00 21 10 Sudeste 15 Sudeste 0 -- -- 38
2017-09-27 10:00:00 17.9 8 Sudeste 11 Sudeste 0 -- -- 44
2017-09-27 09:00:00 16.2 5 Sudeste 8 Este 0 -- -- 47
2017-09-27 08:00:00 15.6 5 Sur 8 Sudeste 0 -- -- 53
2017-09-27 07:00:00 16.6 11 Este 14 Este 0 -- -- 47
2017-09-27 06:00:00 16.3 9 Este 10 Este 0 -- -- 57
2017-09-27 05:00:00 16.3 5 Norte 13 Noroeste 0 -- -- 57
2017-09-27 04:00:00 16.7 12 Noroeste 13 Noroeste 0 -- -- 56
2017-09-27 03:00:00 17.7 9 Oeste 11 Oeste 0 -- -- 52
2017-09-27 02:00:00 18.6 7 Noroeste 10 Noroeste 0 -- -- 49
2017-09-27 01:00:00 19 10 Noroeste 17 Noroeste 0 -- -- 45
2017-09-27 00:00:00 21.4 13 Oeste 19 Sudoeste 0 -- -- 31
2017-09-26 23:00:00 21.9 8 Noroeste 11 Noroeste 0 -- -- 30
2017-09-26 22:00:00 24.3 4 Nordeste -- -- 0 -- -- 26
2017-09-26 21:00:00 24.7 5 Noroeste 9 Noroeste 0 -- -- 26
2017-09-26 20:00:00 26.2 7 Norte 15 Norte 0 -- -- 26
2017-09-26 19:00:00 28.6 4 Noroeste 18 Oeste 0 -- -- 23
2017-09-26 18:00:00 28.9 4 Este 17 Oeste 0 -- -- 22
2017-09-26 17:00:00 28.6 9 Noroeste 15 Este 0 -- -- 21
2017-09-26 16:00:00 28.4 4 Sudoeste 18 Sur 0 -- -- 23
2017-09-26 15:00:00 27.8 7 Sur 23 Sudeste 0 -- -- 25
2017-09-26 14:00:00 26.4 11 Nordeste 20 Nordeste 0 -- -- 29
2017-09-26 13:00:00 25.1 11 Este 26 Este 0 -- -- 34
2017-09-26 12:00:00 23.1 13 Nordeste 26 Nordeste 0 -- -- 39
2017-09-26 11:00:00 21.1 17 Nordeste 26 Este 0 -- -- 43
2017-09-26 10:00:00 17.6 14 Nordeste 22 Nordeste 0 -- -- 51
2017-09-26 09:00:00 12.4 13 Norte 17 Norte 0 -- -- 82
2017-09-26 08:00:00 12 14 Noroeste 17 Noroeste 0 -- -- 82
2017-09-26 07:00:00 12.5 11 Noroeste 15 Noroeste 0 -- -- 78
2017-09-26 06:00:00 13.4 7 Noroeste 13 Norte 0 -- -- 73
2017-09-26 05:00:00 13.6 13 Norte 17 Noroeste 0 -- -- 71
2017-09-26 04:00:00 14.6 16 Noroeste 18 Noroeste 0 -- -- 67
2017-09-26 03:00:00 14.6 14 Noroeste 17 Noroeste 0 -- -- 67
2017-09-26 02:00:00 15.7 14 Noroeste 18 Noroeste 0 -- -- 59
2017-09-26 01:00:00 16.9 12 Noroeste 14 Noroeste 0 -- -- 49
2017-09-26 00:00:00 18.5 10 Noroeste 15 Noroeste 0 -- -- 41
2017-09-25 23:00:00 20.1 13 Noroeste 16 Norte 0 -- -- 34
2017-09-25 22:00:00 21.4 14 Nordeste 21 Norte 0 -- -- 31
2017-09-25 21:00:00 21.8 10 Noroeste 18 Noroeste 0 -- -- 32
2017-09-25 20:00:00 25.1 15 Noroeste 27 Noroeste 0 -- -- 27
2017-09-25 19:00:00 26.7 18 Noroeste 30 Oeste 0 -- -- 25
2017-09-25 18:00:00 27.3 17 Noroeste 28 Noroeste 0 -- -- 24
2017-09-25 17:00:00 27.2 13 Norte 31 Noroeste 0 -- -- 24
2017-09-25 16:00:00 26.6 16 Noroeste 32 Noroeste 0 -- -- 26
2017-09-25 15:00:00 26.2 16 Noroeste 31 Norte 0 -- -- 30
2017-09-25 14:00:00 25 18 Noroeste 30 Noroeste 0 -- -- 34
2017-09-25 13:00:00 22.9 16 Noroeste 25 Noroeste 0 -- -- 40
2017-09-25 12:00:00 21.4 9 Oeste 16 Noroeste 0 -- -- 49
2017-09-25 11:00:00 19.1 11 Norte 18 Norte 0 -- -- 62
2017-09-25 10:00:00 15.9 8 Noroeste 12 Noroeste 0 -- -- 77
2017-09-25 09:00:00 14.1 6 Noroeste 10 Oeste 0 -- -- 89
2017-09-25 08:00:00 14.2 9 Noroeste 11 Noroeste 0 -- -- 90
2017-09-25 07:00:00 14.7 9 Noroeste 13 Oeste 0 -- -- 89
2017-09-25 06:00:00 15.6 10 Noroeste 14 Noroeste 0 -- -- 86
2017-09-25 05:00:00 16.4 8 Noroeste 17 Oeste 0 -- -- 82
2017-09-25 04:00:00 17.1 10 Oeste 17 Oeste 0 -- -- 74
2017-09-25 03:00:00 18.2 13 Oeste 18 Oeste 0 -- -- 63
2017-09-25 02:00:00 19 12 Oeste 28 Oeste 0 -- -- 61
2017-09-25 01:00:00 19.6 19 Noroeste 25 Oeste 0 -- -- 51
2017-09-25 00:00:00 19.8 14 Noroeste 26 Oeste 0 -- -- 33
2017-09-24 23:00:00 22.3 21 Oeste 28 Oeste 0 -- -- 23
2017-09-24 22:00:00 23.4 23 Oeste 30 Oeste 0 -- -- 19
2017-09-24 21:00:00 23.7 19 Oeste 31 Oeste 0 -- -- 17
2017-09-24 20:00:00 26.7 21 Oeste 29 Oeste 0 -- -- 16
2017-09-24 19:00:00 29 23 Oeste 31 Sudoeste 0 -- -- 13
2017-09-24 18:00:00 29.6 23 Oeste 37 Oeste 0 -- -- 20
2017-09-24 17:00:00 30.2 17 Sudoeste 34 Sudoeste 0 -- -- 25
2017-09-24 16:00:00 30 10 Oeste 30 Oeste 0 -- -- 27
2017-09-24 15:00:00 29.5 16 Sudoeste 25 Sudoeste 0 -- -- 28
2017-09-24 14:00:00 28.3 13 Sudoeste 24 Sudoeste 0 -- -- 29
2017-09-24 13:00:00 27.2 12 Oeste 22 Sudoeste 0 -- -- 30
2017-09-24 12:00:00 25.6 5 Oeste 10 Sudoeste 0 -- -- 29
2017-09-24 11:00:00 22.8 5 Sudoeste 9 Sudoeste 0 -- -- 40
2017-09-24 10:00:00 19.4 5 Sur 7 Sur 0 -- -- 51
2017-09-24 09:00:00 17.9 4 Sudoeste 6 Oeste 0 -- -- 55
2017-09-24 08:00:00 17.6 4 Oeste 6 Noroeste 0 -- -- 53
2017-09-24 07:00:00 17.8 6 Noroeste 8 Noroeste 0 -- -- 55
2017-09-24 06:00:00 17.9 6 Noroeste 8 Noroeste 0 -- -- 56
2017-09-24 05:00:00 17.8 6 Oeste -- -- 0 -- -- 56
2017-09-24 04:00:00 17.7 5 Noroeste 10 Noroeste 0 -- -- 58
2017-09-24 03:00:00 17.5 11 Noroeste 13 Noroeste 0 -- -- 59
2017-09-24 02:00:00 18.7 8 Noroeste 14 Noroeste 0 -- -- 56
2017-09-24 01:00:00 19 14 Noroeste 19 Noroeste 0 -- -- 50
2017-09-24 00:00:00 19.7 16 Noroeste 22 Noroeste 0 -- -- 45
2017-09-23 23:00:00 21.7 16 Noroeste 20 Noroeste 0 -- -- 40
2017-09-23 22:00:00 22.6 15 Noroeste 24 Noroeste 0 -- -- 38
2017-09-23 21:00:00 24.1 12 Noroeste 18 Noroeste 0 -- -- 35
2017-09-23 20:00:00 26.9 9 Noroeste 18 Noroeste 0 -- -- 31
2017-09-23 19:00:00 29 13 Noroeste 24 Noroeste 0 -- -- 28
2017-09-23 18:00:00 29.7 8 Sudoeste 22 Sudeste 0 -- -- 27
2017-09-23 17:00:00 29.8 8 Sudoeste 24 Sudoeste 0 -- -- 27
2017-09-23 16:00:00 29.3 12 Sudoeste 22 Sudoeste 0 -- -- 28
2017-09-23 15:00:00 28.6 5 Norte 19 Oeste 0 -- -- 30
2017-09-23 14:00:00 28.2 4 Noroeste 18 Oeste 0 -- -- 30
2017-09-23 13:00:00 27.1 8 Sur 20 Este 0 -- -- 33
2017-09-23 12:00:00 25 10 Este 19 Este 0 -- -- 39
2017-09-23 11:00:00 22.5 15 Este 27 Este 0 -- -- 51
2017-09-23 10:00:00 20.5 19 Este 32 Este 0 -- -- 59
2017-09-23 09:00:00 17.5 17 Este 22 Este 0 -- -- 65
2017-09-23 08:00:00 17.2 17 Este 25 Este 0 -- -- 61
2017-09-23 07:00:00 17.6 18 Este 23 Este 0 -- -- 55
2017-09-23 06:00:00 17.6 16 Nordeste 23 Nordeste 0 -- -- 57
2017-09-23 05:00:00 17.2 12 Norte 17 Nordeste 0 -- -- 63
2017-09-23 04:00:00 18.9 11 Noroeste 12 Noroeste 0 -- -- 57
2017-09-23 03:00:00 19.3 7 Oeste 10 Sudoeste 0 -- -- 50
2017-09-23 02:00:00 19.9 9 Noroeste 13 Noroeste 0 -- -- 51
2017-09-23 01:00:00 20 12 Noroeste 18 Noroeste 0 -- -- 47
2017-09-23 00:00:00 21.1 15 Noroeste 20 Noroeste 0 -- -- 43